Time;durP1;ratioP1;P1;durP2;ratioP2;P2;SDS_P1;SDS_P2;PMS_P1;PMS_P2;Temp;Humidity;BMP_temperature;BMP_pressure;BME280_temperature;BME280_humidity;BME280_pressure;Samples;Min_cycle;Max_cycle;Signal;HPM_P1;HPM_P2
2022/12/18 00:01:05;;;;;;;61.38;25.73;;;-6.70;99.90;;;;;;5014214;28;20557;-54
2022/12/18 00:03:32;;;;;;;67.47;27.83;;;-6.70;99.90;;;;;;5011809;28;20034;-51
2022/12/18 00:05:58;;;;;;;62.70;29.42;;;-6.70;99.90;;;;;;5014002;28;20018;-54
2022/12/18 00:08:23;;;;;;;59.67;24.98;;;-6.70;99.90;;;;;;5013822;28;20028;-54
2022/12/18 00:10:49;;;;;;;63.55;27.10;;;-6.60;99.90;;;;;;5012737;28;20029;-52
2022/12/18 00:13:15;;;;;;;66.65;29.15;;;-6.60;99.90;;;;;;5013137;28;20033;-50
2022/12/18 00:15:40;;;;;;;59.80;26.63;;;-6.60;99.90;;;;;;5014608;28;20030;-46
2022/12/18 00:18:06;;;;;;;71.28;27.25;;;-6.70;99.90;;;;;;5012522;28;20394;-52
2022/12/18 00:20:38;;;;;;;65.75;26.00;;;-6.70;99.90;;;;;;5013848;28;20383;-50
2022/12/18 00:23:04;;;;;;;60.95;24.73;;;-6.70;99.90;;;;;;5013275;28;20083;-53
2022/12/18 00:25:32;;;;;;;64.20;26.40;;;-6.70;99.90;;;;;;5013625;28;20466;-56
2022/12/18 00:27:57;;;;;;;53.30;25.38;;;-6.70;99.90;;;;;;5012346;28;20064;-50
2022/12/18 00:30:23;;;;;;;55.13;25.55;;;-6.70;99.90;;;;;;5012183;28;20069;-54
2022/12/18 00:32:48;;;;;;;65.53;25.05;;;-6.70;99.90;;;;;;5011435;28;20549;-51
2022/12/18 00:35:14;;;;;;;58.10;24.80;;;-6.70;99.90;;;;;;5028723;28;20033;-52
2022/12/18 00:37:39;;;;;;;63.70;26.33;;;-6.70;99.90;;;;;;5013270;28;20026;-51
2022/12/18 00:40:05;;;;;;;70.05;26.92;;;-6.70;99.90;;;;;;5013354;28;20040;-57
2022/12/18 00:45:15;;;;;;;60.80;28.38;;;-6.90;99.90;;;;;;5013252;28;20409;-49
2022/12/18 00:47:41;;;;;;;62.60;25.38;;;-6.90;99.90;;;;;;5013120;28;20313;-52
2022/12/18 00:50:07;;;;;;;59.75;26.75;;;-7.00;99.90;;;;;;5013305;28;20022;-55
2022/12/18 00:52:32;;;;;;;57.33;25.40;;;-7.00;99.90;;;;;;5012056;28;20061;-50
2022/12/18 00:54:58;;;;;;;69.60;27.77;;;-7.00;99.90;;;;;;5012931;28;20041;-50
2022/12/18 00:57:23;;;;;;;53.33;23.98;;;-7.00;99.90;;;;;;5012591;28;20100;-51
2022/12/18 00:59:49;;;;;;;61.72;25.58;;;-7.00;99.90;;;;;;5013104;28;20036;-47
2022/12/18 01:02:40;;;;;;;57.70;25.23;;;-7.10;99.90;;;;;;5011634;28;20037;-53
2022/12/18 01:05:06;;;;;;;60.80;24.17;;;-7.10;99.90;;;;;;4933370;29;20456;-51
2022/12/18 01:07:32;;;;;;;59.63;26.33;;;-7.20;99.90;;;;;;4935132;29;20059;-54
2022/12/18 01:09:57;;;;;;;66.68;27.02;;;-7.20;99.90;;;;;;4934304;29;20067;-55
2022/12/18 01:12:23;;;;;;;62.20;23.02;;;-7.20;99.90;;;;;;4917440;29;20028;-53
2022/12/18 01:14:48;;;;;;;58.72;24.73;;;-7.20;99.90;;;;;;4935374;29;20027;-54
2022/12/18 01:17:14;;;;;;;53.40;23.90;;;-7.30;99.90;;;;;;4935137;29;20053;-55
2022/12/18 01:19:40;;;;;;;60.00;25.60;;;-7.30;99.90;;;;;;4934630;29;20031;-51
2022/12/18 01:22:05;;;;;;;55.15;25.60;;;-7.30;99.90;;;;;;4917183;29;20035;-55
2022/12/18 01:24:31;;;;;;;58.28;27.23;;;-7.40;99.90;;;;;;4935187;29;20063;-56
2022/12/18 01:26:57;;;;;;;67.93;26.00;;;-7.40;99.90;;;;;;4917661;29;20031;-51
2022/12/18 01:29:22;;;;;;;51.75;22.42;;;-7.40;99.90;;;;;;4935163;29;20388;-54
2022/12/18 01:31:48;;;;;;;52.08;23.38;;;-7.40;99.90;;;;;;4934477;29;20038;-57
2022/12/18 01:34:14;;;;;;;52.47;23.55;;;-7.40;99.90;;;;;;4934290;29;20107;-57
2022/12/18 01:36:40;;;;;;;58.22;22.27;;;-7.50;99.90;;;;;;4934671;29;20055;-52
2022/12/18 01:39:09;;;;;;;55.17;23.60;;;-7.40;99.90;;;;;;4934805;29;20019;-58
2022/12/18 01:44:57;;;;;;;47.35;22.60;;;-7.50;99.90;;;;;;4934526;29;20408;-55
2022/12/18 01:47:31;;;;;;;50.97;23.10;;;-7.50;99.90;;;;;;4934533;29;20083;-56
2022/12/18 01:50:00;;;;;;;43.67;20.20;;;-7.50;99.90;;;;;;4934691;29;20046;-57
2022/12/18 01:52:31;;;;;;;52.67;23.65;;;-7.60;99.90;;;;;;4933806;29;20024;-57
2022/12/18 01:54:59;;;;;;;54.97;23.60;;;-7.60;99.90;;;;;;4934802;29;20484;-54
2022/12/18 01:57:25;;;;;;;48.55;22.05;;;-7.50;99.90;;;;;;4934423;29;20449;-55
2022/12/18 01:59:54;;;;;;;47.20;21.98;;;-7.50;99.90;;;;;;4934544;29;20484;-55
2022/12/18 02:02:20;;;;;;;49.35;24.52;;;-7.50;99.90;;;;;;4914774;29;20424;-54
2022/12/18 02:04:46;;;;;;;100.60;43.58;;;-7.50;99.90;;;;;;4934553;29;20035;-54
2022/12/18 02:07:33;;;;;;;53.85;23.50;;;-7.60;99.90;;;;;;4917338;29;20130;-53
2022/12/18 02:10:17;;;;;;;50.33;22.58;;;-7.50;99.90;;;;;;4934520;29;20118;-55
2022/12/18 02:12:49;;;;;;;44.85;21.63;;;-7.60;99.90;;;;;;4916273;29;20114;-54
2022/12/18 02:15:27;;;;;;;51.33;23.85;;;-7.60;99.90;;;;;;4934507;29;20028;-57
2022/12/18 02:18:03;;;;;;;49.28;22.80;;;-7.60;99.90;;;;;;4917256;29;20107;-52
2022/12/18 02:20:48;;;;;;;59.50;22.40;;;-7.60;99.90;;;;;;4934428;29;20107;-54
2022/12/18 02:23:17;;;;;;;51.15;22.83;;;-7.70;99.90;;;;;;4932203;29;20032;-56
2022/12/18 02:25:52;;;;;;;48.80;22.17;;;-7.70;99.90;;;;;;4934030;29;20031;-53
2022/12/18 02:28:20;;;;;;;47.97;22.83;;;-7.70;99.90;;;;;;4933979;29;20129;-53
2022/12/18 02:30:48;;;;;;;54.25;24.25;;;-7.80;99.90;;;;;;4934220;29;20059;-53
2022/12/18 02:33:15;;;;;;;50.90;23.10;;;-7.80;99.90;;;;;;4935960;29;20503;-53
2022/12/18 02:35:41;;;;;;;53.42;23.50;;;-7.90;99.90;;;;;;4937981;29;20031;-54
2022/12/18 02:38:07;;;;;;;48.78;22.85;;;-7.80;99.90;;;;;;4937894;29;20023;-55
2022/12/18 02:40:33;;;;;;;52.47;23.17;;;-7.90;99.90;;;;;;4937901;29;20554;-56
2022/12/18 02:43:07;;;;;;;54.00;24.58;;;-7.90;99.90;;;;;;4936947;29;20032;-58
2022/12/18 02:45:32;;;;;;;48.55;22.73;;;-7.90;99.90;;;;;;4920841;29;20519;-54
2022/12/18 02:47:58;;;;;;;48.72;22.80;;;-7.90;99.90;;;;;;4937736;29;20027;-56
2022/12/18 02:50:40;;;;;;;53.75;22.35;;;-7.90;99.90;;;;;;4920659;29;20400;-59
2022/12/18 02:53:27;;;;;;;47.70;22.13;;;-8.00;99.90;;;;;;4936919;29;20028;-55
2022/12/18 02:56:15;;;;;;;47.40;22.77;;;-8.00;99.90;;;;;;4936388;29;20035;-57
2022/12/18 02:58:59;;;;;;;54.63;21.85;;;-8.00;99.90;;;;;;4937517;29;20099;-53
2022/12/18 03:01:34;;;;;;;45.15;20.92;;;-7.90;99.90;;;;;;4918583;29;20035;-56
2022/12/18 03:04:07;;;;;;;42.03;20.77;;;-7.90;99.90;;;;;;4936302;29;20500;-56
2022/12/18 03:06:39;;;;;;;46.05;20.67;;;-7.80;99.90;;;;;;4936058;29;20083;-56
2022/12/18 03:09:10;;;;;;;44.67;20.42;;;-7.80;99.90;;;;;;4937288;29;20024;-54
2022/12/18 03:14:29;;;;;;;44.90;21.27;;;-7.80;99.90;;;;;;4937722;29;20126;-56
2022/12/18 03:17:01;;;;;;;40.30;20.55;;;-7.80;99.90;;;;;;4920208;29;20028;-56
2022/12/18 03:19:31;;;;;;;44.90;22.33;;;-7.80;99.90;;;;;;4937175;29;20071;-57
2022/12/18 03:22:00;;;;;;;47.58;20.73;;;-7.80;99.90;;;;;;4936449;29;20036;-54
2022/12/18 03:24:29;;;;;;;40.35;20.70;;;-7.80;99.90;;;;;;4937193;29;20443;-54
2022/12/18 03:27:00;;;;;;;45.47;21.80;;;-7.80;99.90;;;;;;4937032;29;20036;-57
2022/12/18 03:29:33;;;;;;;46.28;21.48;;;-7.90;99.90;;;;;;4937062;29;20551;-57
2022/12/18 03:32:09;;;;;;;49.00;21.83;;;-8.00;99.90;;;;;;4936751;29;20027;-55
2022/12/18 03:34:39;;;;;;;46.92;21.63;;;-8.00;99.90;;;;;;4936817;29;20039;-55
2022/12/18 03:37:06;;;;;;;41.03;19.60;;;-8.00;99.90;;;;;;4936889;29;20130;-58
2022/12/18 03:39:34;;;;;;;53.20;22.15;;;-8.00;99.90;;;;;;4936827;29;20186;-56
2022/12/18 03:42:25;;;;;;;49.22;22.15;;;-8.10;99.90;;;;;;4936174;29;20028;-53
2022/12/18 03:45:18;;;;;;;49.35;21.08;;;-8.10;99.90;;;;;;4936466;29;20510;-54
2022/12/18 03:47:55;;;;;;;47.65;21.90;;;-8.10;99.90;;;;;;4936682;29;20035;-56
2022/12/18 03:50:37;;;;;;;48.13;21.63;;;-8.10;99.90;;;;;;4936790;29;20038;-54
2022/12/18 03:53:08;;;;;;;46.88;22.65;;;-8.10;99.90;;;;;;4918764;29;20024;-54
2022/12/18 03:55:35;;;;;;;45.13;24.30;;;-8.20;99.90;;;;;;4919604;29;20024;-57
2022/12/18 03:58:03;;;;;;;49.65;20.35;;;-8.20;99.90;;;;;;4936465;29;20097;-57
2022/12/18 04:00:30;;;;;;;44.95;22.77;;;-8.10;99.90;;;;;;4936545;29;20028;-54
2022/12/18 04:02:59;;;;;;;52.55;23.42;;;-8.20;99.90;;;;;;4932833;29;20510;-57
2022/12/18 04:05:27;;;;;;;43.50;22.52;;;-8.10;99.90;;;;;;4936149;29;20031;-52
2022/12/18 04:07:54;;;;;;;46.83;24.08;;;-8.20;99.90;;;;;;4936193;29;20028;-55
2022/12/18 04:10:19;;;;;;;45.13;23.15;;;-8.10;99.90;;;;;;4936167;29;20030;-54
2022/12/18 04:12:45;;;;;;;48.72;23.60;;;-8.10;99.90;;;;;;4918411;29;20020;-52
2022/12/18 04:15:12;;;;;;;44.08;21.83;;;-8.10;99.90;;;;;;4936119;29;20038;-55
2022/12/18 04:17:39;;;;;;;50.08;20.83;;;-8.10;99.90;;;;;;4919037;29;20047;-56
2022/12/18 04:20:05;;;;;;;43.65;22.65;;;-8.00;99.90;;;;;;4936049;29;20059;-55
2022/12/18 04:22:30;;;;;;;37.88;21.30;;;-8.00;99.90;;;;;;4918127;29;20028;-53
2022/12/18 04:24:56;;;;;;;45.22;23.17;;;-8.00;99.90;;;;;;4918812;29;20087;-54
2022/12/18 04:27:21;;;;;;;47.58;24.08;;;-7.90;99.90;;;;;;4936000;29;20066;-55
2022/12/18 04:29:47;;;;;;;45.05;22.50;;;-7.90;99.90;;;;;;4918914;29;20027;-57
2022/12/18 04:32:13;;;;;;;49.38;22.65;;;-7.90;99.90;;;;;;4935481;29;20020;-53
2022/12/18 04:34:38;;;;;;;44.35;22.23;;;-7.80;99.90;;;;;;4935796;29;20404;-52
2022/12/18 04:37:04;;;;;;;47.85;22.58;;;-7.80;99.90;;;;;;4935979;29;20036;-51
2022/12/18 04:39:29;;;;;;;43.60;23.58;;;-7.80;99.90;;;;;;4935946;29;20043;-54
2022/12/18 04:41:55;;;;;;;46.33;23.40;;;-7.70;99.90;;;;;;4918271;29;20031;-58
2022/12/18 04:44:20;;;;;;;44.05;23.25;;;-7.70;99.90;;;;;;4919956;29;20381;-57
2022/12/18 04:46:46;;;;;;;46.78;25.70;;;-7.60;99.90;;;;;;4919663;29;20031;-54
2022/12/18 04:49:12;;;;;;;45.75;22.02;;;-7.60;99.90;;;;;;4936688;29;20035;-56
2022/12/18 04:51:37;;;;;;;48.70;24.13;;;-7.60;99.90;;;;;;4936476;29;20488;-56
2022/12/18 04:54:03;;;;;;;45.38;22.75;;;-7.60;99.90;;;;;;4934358;29;20070;-54
2022/12/18 04:56:31;;;;;;;51.03;24.35;;;-7.70;99.90;;;;;;4917765;29;20082;-56
2022/12/18 04:58:56;;;;;;;44.00;22.60;;;-7.60;99.90;;;;;;4935453;29;20063;-56
2022/12/18 05:01:22;;;;;;;48.03;24.05;;;-7.60;99.90;;;;;;4934502;29;20070;-57
2022/12/18 05:03:47;;;;;;;41.08;20.27;;;-7.60;99.90;;;;;;4937095;29;20110;-58
2022/12/18 05:06:13;;;;;;;45.65;22.98;;;-7.50;99.90;;;;;;4919491;29;20027;-51
2022/12/18 05:08:39;;;;;;;46.42;23.08;;;-7.50;99.90;;;;;;4918317;29;20028;-54
2022/12/18 05:11:11;;;;;;;41.67;21.25;;;-7.40;99.90;;;;;;4935224;29;20492;-54
2022/12/18 05:13:37;;;;;;;43.92;21.17;;;-7.40;99.90;;;;;;4917272;29;20020;-54
2022/12/18 05:16:04;;;;;;;43.50;21.27;;;-7.30;99.90;;;;;;4934981;29;20399;-53
2022/12/18 05:18:29;;;;;;;40.38;22.30;;;-7.30;99.90;;;;;;4935009;29;20074;-49
2022/12/18 05:20:55;;;;;;;41.72;21.52;;;-7.30;99.90;;;;;;4934955;29;20071;-53
2022/12/18 05:23:22;;;;;;;45.08;21.42;;;-7.30;99.90;;;;;;4934132;29;20047;-51
2022/12/18 05:25:55;;;;;;;38.35;20.77;;;-7.30;99.90;;;;;;4933679;29;20397;-49
2022/12/18 05:28:22;;;;;;;47.42;21.60;;;-7.40;99.90;;;;;;4934762;29;20404;-52
2022/12/18 05:30:53;;;;;;;44.38;22.38;;;-7.40;99.90;;;;;;4935481;29;20487;-52
2022/12/18 05:33:21;;;;;;;56.53;22.02;;;-7.40;99.90;;;;;;4932268;29;20029;-50
2022/12/18 05:35:58;;;;;;;40.03;19.80;;;-7.40;99.90;;;;;;4936728;29;20455;-54
2022/12/18 05:38:25;;;;;;;40.78;20.33;;;-7.50;99.90;;;;;;4935459;29;20030;-53
2022/12/18 05:40:52;;;;;;;42.70;23.45;;;-7.50;99.90;;;;;;4936469;29;20034;-52
2022/12/18 05:43:19;;;;;;;42.65;21.85;;;-7.40;99.90;;;;;;4936393;29;20037;-53
2022/12/18 05:45:44;;;;;;;40.92;21.95;;;-7.40;99.90;;;;;;4938450;29;20043;-58
2022/12/18 05:48:10;;;;;;;44.85;22.90;;;-7.30;99.90;;;;;;4936950;29;20031;-50
2022/12/18 05:50:36;;;;;;;43.88;24.05;;;-7.30;99.90;;;;;;4918183;29;20103;-53
2022/12/18 05:53:03;;;;;;;42.20;22.77;;;-7.20;99.90;;;;;;4934226;29;20054;-53
2022/12/18 05:55:28;;;;;;;46.00;24.10;;;-7.20;99.90;;;;;;4935227;29;20032;-59
2022/12/18 05:57:54;;;;;;;52.35;25.63;;;-7.20;99.90;;;;;;4935850;29;20123;-49
2022/12/18 06:00:19;;;;;;;45.83;23.17;;;-7.20;99.90;;;;;;4918039;29;20043;-53
2022/12/18 06:02:48;;;;;;;46.58;23.80;;;-7.20;99.90;;;;;;4934850;29;20059;-54
2022/12/18 06:05:14;;;;;;;43.17;23.13;;;-7.20;99.90;;;;;;4938242;29;20036;-52
2022/12/18 06:07:40;;;;;;;52.35;24.20;;;-7.20;99.90;;;;;;4919592;29;20082;-53
2022/12/18 06:10:06;;;;;;;49.80;24.88;;;-7.20;99.90;;;;;;4939256;29;20496;-51
2022/12/18 06:12:33;;;;;;;50.42;23.50;;;-7.30;99.90;;;;;;4939175;29;20159;-55
2022/12/18 06:14:59;;;;;;;47.20;23.65;;;-7.30;99.90;;;;;;4934117;29;20071;-52
2022/12/18 06:17:31;;;;;;;46.47;23.08;;;-7.40;99.90;;;;;;4935225;29;20055;-53
2022/12/18 06:19:57;;;;;;;53.22;25.15;;;-7.40;99.90;;;;;;4921698;29;20107;-53
2022/12/18 06:22:22;;;;;;;47.58;24.48;;;-7.40;99.90;;;;;;4932429;29;20063;-54
2022/12/18 06:24:48;;;;;;;48.95;24.48;;;-7.50;99.90;;;;;;4916013;29;20365;-57
2022/12/18 06:27:14;;;;;;;43.47;22.60;;;-7.50;99.90;;;;;;4937228;29;20110;-53
2022/12/18 06:29:39;;;;;;;51.08;22.40;;;-7.50;99.90;;;;;;4919754;29;20023;-56
2022/12/18 06:32:05;;;;;;;47.88;23.25;;;-7.50;99.90;;;;;;4935829;29;20028;-53
2022/12/18 06:34:32;;;;;;;47.80;24.60;;;-7.60;99.90;;;;;;4933719;29;20067;-54
2022/12/18 06:36:57;;;;;;;56.15;26.10;;;-7.50;99.90;;;;;;4935880;29;20071;-51
2022/12/18 06:39:23;;;;;;;49.90;23.90;;;-7.50;99.90;;;;;;4937716;29;20432;-54
2022/12/18 06:41:48;;;;;;;52.05;25.10;;;-7.60;99.90;;;;;;4941393;29;20032;-55
2022/12/18 06:44:14;;;;;;;53.50;24.88;;;-7.50;99.90;;;;;;4940719;29;20640;-51
2022/12/18 06:46:39;;;;;;;43.95;23.00;;;-7.50;99.90;;;;;;4934005;29;20047;-56
2022/12/18 06:49:05;;;;;;;50.05;23.73;;;-7.50;99.90;;;;;;4934427;29;20027;-57
2022/12/18 06:51:31;;;;;;;57.30;27.40;;;-7.50;99.90;;;;;;4934325;29;20020;-51
2022/12/18 06:53:56;;;;;;;52.05;26.52;;;-7.50;99.90;;;;;;4932863;29;20020;-50
2022/12/18 06:56:22;;;;;;;52.83;25.65;;;-7.70;99.90;;;;;;4933032;29;20027;-53
2022/12/18 06:58:47;;;;;;;50.20;24.80;;;-7.80;99.90;;;;;;4934805;29;20063;-54
2022/12/18 07:01:13;;;;;;;56.20;27.45;;;-7.90;99.90;;;;;;4916938;29;20024;-55
2022/12/18 07:03:40;;;;;;;51.47;25.50;;;-7.90;99.90;;;;;;4933955;29;20047;-55
2022/12/18 07:06:12;;;;;;;50.38;24.30;;;-8.00;99.90;;;;;;4933855;29;20049;-52
2022/12/18 07:08:37;;;;;;;46.55;25.20;;;-8.10;99.90;;;;;;4933682;29;20032;-51
2022/12/18 07:11:04;;;;;;;54.40;26.33;;;-8.20;99.90;;;;;;4933973;29;20035;-52
2022/12/18 07:13:30;;;;;;;50.25;25.08;;;-8.20;99.90;;;;;;4935044;29;20032;-56
2022/12/18 07:16:05;;;;;;;48.75;26.05;;;-8.30;99.90;;;;;;4916817;29;20034;-51
2022/12/18 07:18:31;;;;;;;52.28;25.48;;;-8.30;99.90;;;;;;4935792;29;20024;-54
2022/12/18 07:20:56;;;;;;;52.15;25.17;;;-8.20;99.90;;;;;;4936416;29;20094;-52
2022/12/18 07:23:22;;;;;;;44.05;23.17;;;-8.30;99.90;;;;;;4936455;29;20106;-51
2022/12/18 07:25:47;;;;;;;50.25;23.55;;;-8.40;99.90;;;;;;4936635;29;20038;-53
2022/12/18 07:28:14;;;;;;;49.33;23.45;;;-8.30;99.90;;;;;;4936802;29;20040;-51
2022/12/18 07:30:40;;;;;;;54.25;26.73;;;-8.30;99.90;;;;;;4919719;29;20040;-53
2022/12/18 07:33:05;;;;;;;52.53;24.95;;;-8.30;99.90;;;;;;4935812;29;20132;-55
2022/12/18 07:35:32;;;;;;;57.83;27.65;;;-8.40;99.90;;;;;;4936463;29;20032;-52
2022/12/18 07:37:57;;;;;;;53.15;25.65;;;-8.30;99.90;;;;;;4936419;29;20042;-53
2022/12/18 07:40:23;;;;;;;47.08;24.50;;;-8.40;99.90;;;;;;4937734;29;20287;-52
2022/12/18 07:42:48;;;;;;;52.85;25.55;;;-8.40;99.90;;;;;;4938987;29;20036;-53
2022/12/18 07:45:14;;;;;;;45.30;24.10;;;-8.30;99.90;;;;;;4937921;29;20396;-55
2022/12/18 07:47:41;;;;;;;44.72;23.13;;;-8.20;99.90;;;;;;4923589;29;20047;-55
2022/12/18 07:50:06;;;;;;;43.30;22.20;;;-8.20;99.90;;;;;;4937195;29;20111;-54
2022/12/18 07:52:32;;;;;;;57.97;24.73;;;-8.20;99.90;;;;;;4935687;29;20110;-53
2022/12/18 07:54:58;;;;;;;53.53;26.52;;;-8.20;99.90;;;;;;4936246;29;20280;-56
2022/12/18 07:57:23;;;;;;;64.13;26.55;;;-8.20;99.90;;;;;;4936237;29;20027;-55
2022/12/18 07:59:49;;;;;;;48.78;23.20;;;-8.30;99.90;;;;;;4936000;29;20086;-54
2022/12/18 08:02:14;;;;;;;50.33;25.42;;;-8.20;99.90;;;;;;4935519;29;20140;-54
2022/12/18 08:04:39;;;;;;;50.92;24.70;;;-8.10;99.90;;;;;;4935536;29;20035;-55
2022/12/18 08:07:05;;;;;;;54.67;24.40;;;-8.00;99.90;;;;;;4936033;29;20027;-54
2022/12/18 08:09:31;;;;;;;55.28;24.92;;;-7.90;99.90;;;;;;4936102;29;20015;-52
2022/12/18 08:11:56;;;;;;;47.83;23.50;;;-7.90;99.90;;;;;;4935413;29;20032;-50
2022/12/18 08:14:22;;;;;;;53.10;24.63;;;-7.90;99.90;;;;;;4935619;29;20035;-51
2022/12/18 08:16:48;;;;;;;55.47;26.27;;;-7.90;99.90;;;;;;4935557;29;20024;-50
2022/12/18 08:19:13;;;;;;;53.20;25.27;;;-7.80;99.90;;;;;;4936433;29;20480;-54
2022/12/18 08:21:41;;;;;;;49.28;23.13;;;-7.70;99.90;;;;;;4936136;29;20039;-54
2022/12/18 08:24:09;;;;;;;48.63;24.02;;;-7.70;99.90;;;;;;4934851;29;20032;-53
2022/12/18 08:26:34;;;;;;;55.67;25.10;;;-7.60;99.90;;;;;;4935591;29;20035;-52
2022/12/18 08:29:00;;;;;;;51.97;25.52;;;-7.50;99.90;;;;;;4935406;29;20030;-49
2022/12/18 08:31:28;;;;;;;57.95;26.95;;;-7.40;99.90;;;;;;4918644;29;20370;-55
2022/12/18 08:33:54;;;;;;;61.92;27.17;;;-7.40;99.90;;;;;;4934627;29;20374;-56
2022/12/18 08:36:21;;;;;;;54.45;27.48;;;-7.50;99.90;;;;;;4935844;29;20067;-52
2022/12/18 08:38:47;;;;;;;55.97;27.80;;;-7.50;99.90;;;;;;4918540;29;20034;-51
2022/12/18 08:41:15;;;;;;;59.03;28.05;;;-7.40;99.90;;;;;;4936597;29;20027;-55
2022/12/18 08:46:26;;;;;;;52.40;25.77;;;-7.30;99.90;;;;;;4935873;29;20095;-53
2022/12/18 08:48:53;;;;;;;52.83;24.67;;;-7.10;99.90;;;;;;4918931;29;20031;-54
2022/12/18 08:51:20;;;;;;;51.67;24.52;;;-6.60;99.90;;;;;;4935566;29;20078;-57
2022/12/18 08:53:46;;;;;;;50.58;25.50;;;-6.00;99.90;;;;;;4917909;29;20050;-55
2022/12/18 08:56:13;;;;;;;52.83;25.63;;;-5.10;99.90;;;;;;4935459;29;20044;-57
2022/12/18 08:58:38;;;;;;;48.55;24.92;;;-4.30;99.90;;;;;;4934443;29;20066;-52
2022/12/18 09:01:06;;;;;;;46.60;23.13;;;-3.50;99.90;;;;;;4935431;29;20051;-54
2022/12/18 09:03:32;;;;;;;49.85;25.85;;;-2.90;99.90;;;;;;4917325;29;20075;-55
2022/12/18 09:05:59;;;;;;;44.47;24.27;;;-2.60;99.90;;;;;;4935120;29;20062;-53
2022/12/18 09:08:25;;;;;;;46.65;23.83;;;-2.30;99.90;;;;;;4935164;29;20504;-56
2022/12/18 09:10:51;;;;;;;42.95;22.83;;;-2.10;99.90;;;;;;4918370;29;20028;-53
2022/12/18 09:13:17;;;;;;;45.70;25.15;;;-1.80;99.90;;;;;;4934309;29;20075;-55
2022/12/18 09:15:48;;;;;;;44.90;24.50;;;-1.50;99.90;;;;;;4934892;29;20499;-56
2022/12/18 09:18:16;;;;;;;48.15;23.88;;;-1.30;99.90;;;;;;4934947;29;20036;-53
2022/12/18 09:20:42;;;;;;;42.13;22.33;;;-1.20;99.90;;;;;;4917871;29;20118;-55
2022/12/18 09:23:08;;;;;;;44.03;23.13;;;-0.90;99.90;;;;;;4934099;29;20452;-54
2022/12/18 09:25:35;;;;;;;44.85;25.10;;;-1.30;99.90;;;;;;4934949;29;20369;-55
2022/12/18 09:28:03;;;;;;;45.80;25.83;;;-1.60;99.90;;;;;;4934889;29;20070;-56
2022/12/18 09:30:30;;;;;;;44.75;24.30;;;-1.50;99.90;;;;;;4933405;29;20054;-49
2022/12/18 09:32:55;;;;;;;42.97;23.73;;;-1.60;99.90;;;;;;4934015;29;20107;-58
2022/12/18 09:35:21;;;;;;;48.78;25.17;;;-1.20;99.90;;;;;;4934767;29;20082;-57
2022/12/18 09:37:47;;;;;;;46.78;24.60;;;-1.10;99.90;;;;;;4934475;29;20027;-52
2022/12/18 09:40:15;;;;;;;46.75;24.95;;;-0.90;99.90;;;;;;4934491;29;20027;-57
2022/12/18 09:42:45;;;;;;;47.95;26.17;;;-0.60;99.90;;;;;;4933459;29;20527;-55
2022/12/18 09:45:14;;;;;;;46.20;26.88;;;-0.90;99.90;;;;;;4934740;29;20035;-55
2022/12/18 09:47:42;;;;;;;43.92;24.83;;;-1.00;99.90;;;;;;4934411;29;20032;-57
2022/12/18 09:50:33;;;;;;;48.20;26.90;;;-0.90;99.90;;;;;;4934393;29;20024;-57
2022/12/18 09:53:05;;;;;;;47.33;25.55;;;-0.60;99.90;;;;;;4933535;29;20022;-56
2022/12/18 09:55:43;;;;;;;49.03;27.00;;;-0.60;99.90;;;;;;4934412;29;20429;-53
2022/12/18 09:58:30;;;;;;;45.92;27.02;;;-0.50;99.90;;;;;;4934237;29;20028;-56
2022/12/18 10:00:55;;;;;;;48.45;26.67;;;-0.40;99.90;;;;;;4934203;29;20032;-51
2022/12/18 10:03:21;;;;;;;51.15;27.50;;;-0.30;99.90;;;;;;4933186;29;20139;-53
2022/12/18 10:06:13;;;;;;;49.15;26.88;;;-0.30;99.90;;;;;;4934190;29;20024;-58
2022/12/18 10:09:09;;;;;;;53.53;30.30;;;-0.10;99.90;;;;;;4917330;29;20024;-56
2022/12/18 10:12:05;;;;;;;45.63;26.95;;;-0.30;99.90;;;;;;4933327;29;20524;-53
2022/12/18 10:14:42;;;;;;;48.65;27.33;;;-0.40;99.90;;;;;;4934152;29;20035;-53
2022/12/18 10:17:34;;;;;;;55.33;29.13;;;-0.70;99.90;;;;;;4916917;29;20028;-53
2022/12/18 10:20:13;;;;;;;48.10;29.10;;;-0.90;99.90;;;;;;4934260;29;20399;-56
2022/12/18 10:23:11;;;;;;;54.00;29.27;;;-1.10;99.90;;;;;;4933391;29;20024;-51
2022/12/18 10:25:59;;;;;;;57.22;29.33;;;-1.10;99.90;;;;;;4911831;29;20083;-57
2022/12/18 10:28:26;;;;;;;54.28;29.92;;;-1.20;99.90;;;;;;4934270;29;20456;-57
2022/12/18 10:30:52;;;;;;;50.58;27.42;;;-1.30;99.90;;;;;;4934025;29;20023;-53
2022/12/18 10:33:27;;;;;;;55.25;28.30;;;-1.40;99.90;;;;;;4933098;29;20027;-55
2022/12/18 10:35:54;;;;;;;50.30;27.83;;;-1.50;99.90;;;;;;4934035;29;20548;-53
2022/12/18 10:38:23;;;;;;;51.58;28.30;;;-1.70;99.90;;;;;;4933789;29;20048;-55
2022/12/18 10:40:52;;;;;;;53.70;30.17;;;-2.00;99.90;;;;;;4934003;29;20031;-52
2022/12/18 10:43:27;;;;;;;51.70;29.00;;;-2.30;99.90;;;;;;4932936;29;20023;-50
2022/12/18 10:46:08;;;;;;;54.30;29.02;;;-2.40;99.90;;;;;;4934033;29;20030;-52
2022/12/18 10:48:47;;;;;;;56.80;30.15;;;-2.40;99.90;;;;;;4934413;29;20044;-52
2022/12/18 10:51:29;;;;;;;59.95;29.67;;;-2.50;99.90;;;;;;4933941;29;20020;-54
2022/12/18 10:54:04;;;;;;;58.50;30.77;;;-2.60;99.90;;;;;;4935193;29;20087;-52
2022/12/18 10:56:31;;;;;;;54.33;29.70;;;-2.70;99.90;;;;;;4937427;29;20024;-56
2022/12/18 10:59:03;;;;;;;55.88;31.20;;;-2.80;99.90;;;;;;4937382;29;20098;-54
2022/12/18 11:01:51;;;;;;;63.22;31.52;;;-2.80;99.90;;;;;;4920769;29;20575;-54
2022/12/18 11:04:25;;;;;;;65.68;32.10;;;-2.80;99.90;;;;;;4919712;29;20580;-52
2022/12/18 11:07:07;;;;;;;57.88;30.88;;;-2.80;99.90;;;;;;4937451;29;20500;-53
2022/12/18 11:09:35;;;;;;;54.65;29.48;;;-2.80;99.90;;;;;;4937894;29;20060;-50
2022/12/18 11:12:14;;;;;;;65.13;30.98;;;-2.70;99.90;;;;;;4936915;29;20020;-53
2022/12/18 11:14:48;;;;;;;112.93;54.22;;;-2.60;99.90;;;;;;4937223;29;20028;-53
2022/12/18 11:17:25;;;;;;;54.35;28.88;;;-2.60;99.90;;;;;;4920103;29;20051;-52
2022/12/18 11:19:55;;;;;;;62.95;30.67;;;-2.60;99.90;;;;;;4936988;29;20059;-53
2022/12/18 11:22:33;;;;;;;59.45;27.52;;;-2.80;99.90;;;;;;4936521;29;20087;-54
2022/12/18 11:25:00;;;;;;;58.45;30.15;;;-2.90;99.90;;;;;;4920135;29;20059;-56
2022/12/18 11:27:28;;;;;;;66.57;30.55;;;-3.00;99.90;;;;;;4919692;29;20038;-53
2022/12/18 11:30:08;;;;;;;61.25;28.85;;;-3.10;99.90;;;;;;4936957;29;20038;-53
2022/12/18 11:32:44;;;;;;;60.13;28.83;;;-3.20;99.90;;;;;;4934885;29;20484;-57
2022/12/18 11:35:40;;;;;;;58.80;28.45;;;-3.30;99.90;;;;;;4936822;29;20052;-54
2022/12/18 11:38:30;;;;;;;69.93;28.92;;;-3.30;99.90;;;;;;4936685;29;20093;-53
2022/12/18 11:41:19;;;;;;;57.67;26.70;;;-3.40;99.90;;;;;;4919704;29;20050;-52
2022/12/18 11:44:03;;;;;;;63.08;29.63;;;-3.50;99.90;;;;;;4918434;29;20059;-53
2022/12/18 11:46:43;;;;;;;58.00;29.13;;;-3.50;99.90;;;;;;4936285;29;20118;-49
2022/12/18 11:49:15;;;;;;;56.88;28.85;;;-3.60;99.90;;;;;;4935052;29;20476;-52
2022/12/18 11:52:09;;;;;;;65.68;29.83;;;-3.60;99.90;;;;;;4935656;29;20028;-51
2022/12/18 11:54:34;;;;;;;63.47;28.38;;;-3.60;99.90;;;;;;4935409;29;20079;-50
2022/12/18 11:57:06;;;;;;;59.85;28.17;;;-3.70;99.90;;;;;;4935457;29;20027;-56
2022/12/18 11:59:55;;;;;;;66.70;29.02;;;-3.60;99.90;;;;;;4934949;29;20032;-52
2022/12/18 12:02:57;;;;;;;69.78;30.77;;;-3.60;99.90;;;;;;4935779;29;20055;-53
2022/12/18 12:05:55;;;;;;;64.82;30.52;;;-3.50;99.90;;;;;;4918975;29;20039;-53
2022/12/18 12:09:01;;;;;;;58.13;28.70;;;-3.40;99.90;;;;;;4936614;29;20028;-55
2022/12/18 12:11:36;;;;;;;69.53;30.10;;;-3.30;99.90;;;;;;4919296;29;20074;-52
2022/12/18 12:14:33;;;;;;;62.83;30.63;;;-3.30;99.90;;;;;;4935733;29;20051;-54
2022/12/18 12:17:07;;;;;;;62.50;29.17;;;-3.30;99.90;;;;;;4919073;29;20034;-53
2022/12/18 12:19:51;;;;;;;69.90;29.63;;;-3.20;99.90;;;;;;4936237;29;20399;-53
2022/12/18 12:22:36;;;;;;;54.83;25.77;;;-3.20;99.90;;;;;;4935212;29;20106;-49
2022/12/18 12:25:14;;;;;;;70.55;31.20;;;-3.20;99.90;;;;;;4918857;29;20456;-51
2022/12/18 12:27:39;;;;;;;60.40;29.90;;;-3.10;99.90;;;;;;4935808;29;20488;-55
2022/12/18 12:30:11;;;;;;;66.38;30.13;;;-3.10;99.90;;;;;;4918673;29;20024;-53
2022/12/18 12:32:55;;;;;;;60.45;27.35;;;-3.10;99.90;;;;;;4934911;29;20095;-53
2022/12/18 12:35:44;;;;;;;66.25;29.50;;;-3.10;99.90;;;;;;4935787;29;20150;-52
2022/12/18 12:38:35;;;;;;;65.72;30.40;;;-3.10;99.90;;;;;;4935656;29;20120;-56
2022/12/18 12:43:12;;;;;;;63.05;29.83;;;-3.20;99.90;;;;;;4935340;29;20071;-53
2022/12/18 12:43:57;;;;;;;74.18;30.20;;;-3.20;99.90;;;;;;4934631;29;20083;-55
2022/12/18 12:46:24;;;;;;;69.15;28.30;;;-3.20;99.90;;;;;;4935157;29;20024;-56
2022/12/18 12:48:53;;;;;;;64.05;30.70;;;-3.20;99.90;;;;;;4935593;29;20020;-51
2022/12/18 12:51:23;;;;;;;58.55;28.50;;;-3.20;99.90;;;;;;4935595;29;20027;-51
2022/12/18 12:53:51;;;;;;;66.30;29.05;;;-3.00;99.90;;;;;;4934766;29;20036;-56